createdAt,value
2018-07-14T00:04:01.806Z,87.30
2018-07-14T00:06:30.372Z,86.90
2018-07-14T00:08:58.865Z,87.00
2018-07-14T00:11:27.341Z,87.20
2018-07-14T00:13:56.547Z,88.00
2018-07-14T00:16:25.969Z,88.30
2018-07-14T00:18:54.413Z,88.60
2018-07-14T00:21:22.885Z,89.00
2018-07-14T00:23:51.407Z,88.70
2018-07-14T00:26:19.864Z,88.10
2018-07-14T00:28:48.702Z,87.70
2018-07-14T00:31:17.547Z,87.50
2018-07-14T00:33:46.183Z,87.40
2018-07-14T00:36:14.693Z,87.40
2018-07-14T00:38:43.134Z,87.60
2018-07-14T00:41:11.614Z,87.10
2018-07-14T00:43:40.101Z,87.50
2018-07-14T00:46:08.549Z,87.60
2018-07-14T00:48:36.971Z,88.40
2018-07-14T00:51:05.441Z,88.30
2018-07-14T00:53:33.980Z,88.30
2018-07-14T00:56:02.389Z,88.00
2018-07-14T00:58:30.966Z,87.70
2018-07-14T01:01:00.137Z,87.70
2018-07-14T01:03:28.616Z,87.90
2018-07-14T01:05:57.029Z,87.80
2018-07-14T01:08:25.516Z,87.30
2018-07-14T01:10:54.517Z,87.30
2018-07-14T01:13:22.954Z,86.70
2018-07-14T01:15:51.394Z,87.70
2018-07-14T01:18:19.889Z,87.80
2018-07-14T01:20:48.336Z,87.80
2018-07-14T01:23:16.732Z,88.20
2018-07-14T01:25:45.426Z,88.60
2018-07-14T01:28:13.948Z,88.90
2018-07-14T01:30:42.384Z,89.20
2018-07-14T01:33:10.793Z,89.70
2018-07-14T01:35:39.239Z,88.50
2018-07-14T01:38:07.733Z,87.20
2018-07-14T01:40:36.179Z,87.60
2018-07-14T01:43:04.572Z,88.20
2018-07-14T01:45:33.119Z,88.70
2018-07-14T01:48:01.557Z,89.20
2018-07-14T01:50:30.125Z,88.20
2018-07-14T01:52:58.598Z,87.80
2018-07-14T01:55:27.656Z,88.00
2018-07-14T01:57:56.288Z,88.40
2018-07-14T02:00:24.817Z,87.90
2018-07-14T02:02:53.236Z,88.50
2018-07-14T02:05:22.318Z,89.00
2018-07-14T02:07:51.280Z,89.10
2018-07-14T02:10:19.708Z,89.20
2018-07-14T02:12:48.712Z,89.20
2018-07-14T02:15:17.197Z,89.50
2018-07-14T02:17:45.751Z,89.80
2018-07-14T02:20:14.176Z,90.10
2018-07-14T02:22:42.673Z,90.10
2018-07-14T02:25:11.108Z,90.00
2018-07-14T02:27:39.530Z,90.10
2018-07-14T02:30:07.993Z,90.10
2018-07-14T02:32:37.133Z,89.90
2018-07-14T02:35:05.676Z,90.20
2018-07-14T02:37:34.105Z,90.30
2018-07-14T02:40:02.566Z,90.30
2018-07-14T02:42:31.058Z,90.30
2018-07-14T02:45:02.521Z,90.20
2018-07-14T02:47:30.924Z,90.20
2018-07-14T02:49:59.479Z,90.20
2018-07-14T02:52:27.940Z,90.10
2018-07-14T02:54:56.350Z,90.20
2018-07-14T02:57:24.828Z,90.30
2018-07-14T02:59:53.284Z,90.40
2018-07-14T03:02:21.857Z,90.40
2018-07-14T03:04:50.252Z,90.20
2018-07-14T03:07:18.718Z,90.30
2018-07-14T03:09:47.165Z,90.20
2018-07-14T03:12:15.640Z,90.30
2018-07-14T03:14:44.084Z,90.30
2018-07-14T03:17:12.548Z,90.40
2018-07-14T03:19:40.986Z,90.50
2018-07-14T03:22:09.481Z,90.60
2018-07-14T03:24:37.928Z,90.50
2018-07-14T03:27:06.329Z,90.60
2018-07-14T03:29:34.773Z,90.70
2018-07-14T03:32:03.193Z,90.30
2018-07-14T03:34:31.680Z,90.50
2018-07-14T03:37:00.261Z,90.40
2018-07-14T03:39:28.688Z,90.20
2018-07-14T03:41:57.133Z,90.50
2018-07-14T03:44:25.605Z,90.80
2018-07-14T03:46:54.021Z,90.70
2018-07-14T03:49:22.506Z,91.10
2018-07-14T03:51:51.121Z,90.70
2018-07-14T03:54:19.554Z,90.70
2018-07-14T03:56:48.134Z,90.70
2018-07-14T03:59:16.656Z,90.70
2018-07-14T04:01:45.098Z,90.80
2018-07-14T04:04:14.311Z,90.70
2018-07-14T04:06:42.785Z,90.60
2018-07-14T04:09:11.223Z,90.40
2018-07-14T04:11:39.721Z,90.50
2018-07-14T04:14:08.162Z,90.60
2018-07-14T04:16:37.305Z,90.40
2018-07-14T04:19:05.784Z,90.40
2018-07-14T04:21:34.222Z,90.50
2018-07-14T04:24:02.689Z,90.40
2018-07-14T04:26:31.110Z,90.40
2018-07-14T04:28:59.564Z,90.50
2018-07-14T04:31:28.958Z,90.40
2018-07-14T04:33:57.396Z,90.30
2018-07-14T04:36:26.309Z,90.30
2018-07-14T04:38:55.793Z,90.10
2018-07-14T04:41:24.502Z,90.40
2018-07-14T04:46:21.199Z,90.50
2018-07-14T04:48:49.766Z,90.60
2018-07-14T04:51:18.184Z,90.50
2018-07-14T04:53:46.633Z,90.50
2018-07-14T04:56:16.057Z,90.50
2018-07-14T04:58:44.592Z,90.60
2018-07-14T05:01:13.041Z,90.40
2018-07-14T05:03:41.592Z,90.40
2018-07-14T05:06:10.017Z,90.60
2018-07-14T05:08:38.437Z,90.30
2018-07-14T05:11:07.016Z,90.30
2018-07-14T05:26:36.163Z,90.40
2018-07-14T05:29:05.088Z,91.00
2018-07-14T05:31:37.101Z,91.00
2018-07-14T05:34:06.048Z,90.20
2018-07-14T05:36:34.469Z,89.90
2018-07-14T05:39:03.143Z,89.40
2018-07-14T05:41:31.679Z,87.90
2018-07-14T05:44:00.154Z,87.00
2018-07-14T05:46:29.437Z,86.80
2018-07-14T05:48:58.461Z,85.80
2018-07-14T05:51:26.882Z,84.90
2018-07-14T05:53:55.445Z,84.90
2018-07-14T05:56:23.991Z,84.50
2018-07-14T05:58:52.422Z,84.10
2018-07-14T06:01:20.840Z,83.30
2018-07-14T06:03:49.321Z,84.20
2018-07-14T06:06:17.754Z,83.50
2018-07-14T06:08:46.205Z,83.10
2018-07-14T06:11:14.616Z,83.70
2018-07-14T06:13:43.069Z,82.70
2018-07-14T06:16:11.516Z,82.00
2018-07-14T06:18:39.993Z,81.10
2018-07-14T06:21:08.518Z,80.50
2018-07-14T06:23:37.357Z,80.30
2018-07-14T06:26:05.901Z,79.80
2018-07-14T06:28:34.305Z,79.40
2018-07-14T06:31:02.742Z,78.80
2018-07-14T06:33:31.846Z,77.30
2018-07-14T06:36:00.304Z,78.30
2018-07-14T06:38:28.848Z,78.70
2018-07-14T06:40:57.687Z,78.10
2018-07-14T06:43:26.272Z,77.30
2018-07-14T06:45:54.688Z,76.80
2018-07-14T06:48:23.128Z,77.10
2018-07-14T06:50:51.576Z,76.00
2018-07-14T06:53:20.009Z,76.50
2018-07-14T06:55:48.488Z,75.40
2018-07-14T06:58:16.961Z,76.90
2018-07-14T07:00:45.467Z,76.20
2018-07-14T07:03:14.017Z,76.50
2018-07-14T07:05:42.855Z,76.40
2018-07-14T07:08:11.381Z,75.90
2018-07-14T07:10:39.836Z,75.40
2018-07-14T07:13:08.277Z,74.70
2018-07-14T07:15:36.900Z,75.10
2018-07-14T07:18:05.369Z,74.10
2018-07-14T07:20:33.844Z,74.60
2018-07-14T07:23:02.489Z,74.40
2018-07-14T07:25:31.074Z,73.40
2018-07-14T07:27:59.504Z,73.50
2018-07-14T07:30:28.019Z,74.40
2018-07-14T07:32:56.481Z,73.90
2018-07-14T07:35:24.960Z,73.20
2018-07-14T07:37:53.407Z,74.20
2018-07-14T07:40:22.268Z,73.80
2018-07-14T07:42:50.800Z,73.20
2018-07-14T07:45:19.243Z,74.10
2018-07-14T07:47:47.666Z,73.20
2018-07-14T07:50:16.130Z,73.30
2018-07-14T07:52:44.622Z,72.30
2018-07-14T07:55:13.271Z,70.90
2018-07-14T07:57:41.692Z,70.80
2018-07-14T08:00:10.202Z,71.60
2018-07-14T08:02:38.681Z,72.00
2018-07-14T08:05:07.397Z,70.70
2018-07-14T08:07:35.962Z,70.10
2018-07-14T08:10:04.462Z,71.40
2018-07-14T08:12:33.009Z,70.50
2018-07-14T08:15:01.440Z,69.60
2018-07-14T08:17:30.548Z,66.20
2018-07-14T08:19:59.029Z,65.70
2018-07-14T08:22:27.473Z,65.70
2018-07-14T08:24:55.970Z,64.90
2018-07-14T08:27:24.391Z,65.50
2018-07-14T08:29:52.840Z,64.80
2018-07-14T08:34:49.467Z,65.50
2018-07-14T08:37:17.984Z,63.60
2018-07-14T08:42:14.575Z,64.60
2018-07-14T08:44:43.504Z,65.40
2018-07-14T08:47:12.032Z,68.10
2018-07-14T08:49:40.586Z,66.40
2018-07-14T08:52:09.098Z,63.50
2018-07-14T08:54:37.548Z,63.30
2018-07-14T08:57:07.132Z,60.90
2018-07-14T08:59:36.513Z,60.00
2018-07-14T09:02:04.971Z,59.80
2018-07-14T09:04:33.532Z,59.70
2018-07-14T09:07:01.942Z,59.60
2018-07-14T09:09:30.510Z,60.40
2018-07-14T09:11:58.934Z,61.70
2018-07-14T09:14:27.510Z,61.40
2018-07-14T09:16:55.917Z,60.30
2018-07-14T09:19:24.396Z,60.00
2018-07-14T09:21:53.290Z,60.00
2018-07-14T09:24:21.788Z,60.00
2018-07-14T09:26:50.248Z,59.50
2018-07-14T09:29:18.660Z,60.00
2018-07-14T09:34:15.298Z,59.90
2018-07-14T09:39:12.002Z,58.80
2018-07-14T09:41:40.441Z,58.10
2018-07-14T09:44:09.047Z,58.60
2018-07-14T09:46:37.484Z,57.90
2018-07-14T09:49:07.212Z,58.30
2018-07-14T09:51:35.728Z,58.50
2018-07-14T09:54:04.364Z,57.90
2018-07-14T09:56:32.796Z,58.50
2018-07-14T09:59:01.283Z,58.40
2018-07-14T10:01:29.752Z,57.90
2018-07-14T10:03:58.226Z,58.70
2018-07-14T10:06:26.655Z,57.20
2018-07-14T10:08:55.140Z,58.50
2018-07-14T10:11:23.560Z,57.60
2018-07-14T10:13:52.078Z,59.40
2018-07-14T10:16:20.522Z,59.20
2018-07-14T10:18:48.985Z,59.50
2018-07-14T10:21:17.497Z,58.80
2018-07-14T10:23:45.931Z,59.90
2018-07-14T10:26:14.420Z,58.60
2018-07-14T10:28:42.887Z,56.60
2018-07-14T10:31:11.365Z,56.50
2018-07-14T10:33:39.893Z,56.50
2018-07-14T10:36:08.259Z,56.00
2018-07-14T10:38:36.660Z,57.60
2018-07-14T10:41:05.100Z,58.80
2018-07-14T10:43:33.513Z,56.80
2018-07-14T10:48:30.348Z,56.20
2018-07-14T10:50:58.817Z,55.10
2018-07-14T10:53:28.062Z,56.00
2018-07-14T10:55:56.525Z,55.40
2018-07-14T10:58:25.021Z,56.50
2018-07-14T11:00:53.493Z,57.70
2018-07-14T11:03:21.965Z,58.50
2018-07-14T11:05:50.397Z,57.80
2018-07-14T11:08:18.844Z,58.20
2018-07-14T11:10:47.402Z,56.80
2018-07-14T11:13:15.853Z,56.90
2018-07-14T11:15:44.306Z,55.60
2018-07-14T11:18:12.733Z,55.50
2018-07-14T11:20:41.193Z,56.00
2018-07-14T11:23:09.600Z,55.40
2018-07-14T11:25:38.134Z,56.70
2018-07-14T11:28:06.685Z,55.20
2018-07-14T11:30:35.189Z,55.90
2018-07-14T11:33:03.620Z,54.80
2018-07-14T11:35:32.084Z,53.20
2018-07-14T11:38:00.581Z,54.60
2018-07-14T11:40:29.053Z,52.20
2018-07-14T11:42:57.512Z,54.20
2018-07-14T11:45:25.962Z,54.70
2018-07-14T11:47:54.458Z,55.60
2018-07-14T11:50:22.916Z,54.80
2018-07-14T11:52:51.504Z,54.50
2018-07-14T11:55:19.988Z,54.00
2018-07-14T11:57:48.393Z,55.20
2018-07-14T12:00:16.965Z,53.90
2018-07-14T12:02:45.398Z,54.10
2018-07-14T12:05:13.948Z,53.50
2018-07-14T12:07:42.401Z,53.60
2018-07-14T12:10:10.911Z,54.20
2018-07-14T12:12:39.365Z,55.20
2018-07-14T12:15:08.027Z,56.50
2018-07-14T12:17:36.537Z,55.90
2018-07-14T12:20:05.120Z,57.00
2018-07-14T12:22:33.611Z,57.20
2018-07-14T12:25:02.053Z,54.20
2018-07-14T12:27:30.525Z,55.20
2018-07-14T12:29:59.048Z,54.50
2018-07-14T12:32:27.613Z,54.60
2018-07-14T12:34:56.602Z,55.50
2018-07-14T12:37:25.749Z,57.00
2018-07-14T12:39:54.234Z,56.70
2018-07-14T12:42:22.693Z,57.50
2018-07-14T12:44:51.114Z,57.10
2018-07-14T12:47:19.613Z,57.60
2018-07-14T12:49:48.072Z,58.00
2018-07-14T12:52:16.620Z,57.20
2018-07-14T12:54:45.109Z,57.60
2018-07-14T12:57:13.552Z,56.90
2018-07-14T12:59:41.985Z,58.40
2018-07-14T13:02:10.501Z,56.80
2018-07-14T13:04:38.987Z,55.90
2018-07-14T13:07:07.624Z,56.00
2018-07-14T13:09:36.070Z,55.20
2018-07-14T13:12:04.644Z,54.40
2018-07-14T13:14:33.131Z,54.20
2018-07-14T13:17:01.561Z,53.70
2018-07-14T13:19:30.040Z,54.70
2018-07-14T13:21:58.610Z,54.70
2018-07-14T13:24:27.210Z,53.60
2018-07-14T13:26:55.721Z,55.20
2018-07-14T13:29:24.223Z,52.60
2018-07-14T13:31:52.664Z,54.10
2018-07-14T13:34:21.128Z,55.20
2018-07-14T13:36:49.574Z,53.80
2018-07-14T13:39:18.061Z,54.70
2018-07-14T13:41:46.521Z,54.50
2018-07-14T13:44:21.549Z,54.80
2018-07-14T13:46:50.022Z,55.00
2018-07-14T13:49:18.587Z,54.40
2018-07-14T13:51:47.128Z,55.20
2018-07-14T13:54:15.656Z,55.30
2018-07-14T13:56:44.167Z,54.30
2018-07-14T13:59:12.678Z,55.20
2018-07-14T14:01:41.093Z,55.30
2018-07-14T14:04:09.610Z,56.10
2018-07-14T14:06:38.901Z,57.10
2018-07-14T14:09:07.533Z,57.10
2018-07-14T14:11:36.226Z,58.30
2018-07-14T14:14:04.742Z,59.20
2018-07-14T14:16:33.288Z,58.90
2018-07-14T14:19:01.800Z,58.10
2018-07-14T14:21:30.830Z,58.70
2018-07-14T14:23:59.746Z,57.40
2018-07-14T14:26:28.819Z,57.40
2018-07-14T14:28:57.518Z,57.00
2018-07-14T14:31:26.037Z,55.60
2018-07-14T14:33:54.474Z,56.00
2018-07-14T14:36:22.939Z,56.10
2018-07-14T14:38:52.337Z,55.90
2018-07-14T14:41:20.849Z,55.10
2018-07-14T14:46:17.430Z,54.80
2018-07-14T14:48:46.048Z,54.10
2018-07-14T14:51:14.477Z,53.90
2018-07-14T14:53:44.155Z,54.50
2018-07-14T14:56:12.933Z,55.00
2018-07-14T14:58:41.376Z,53.30
2018-07-14T15:01:09.925Z,54.20
2018-07-14T15:03:38.480Z,52.90
2018-07-14T15:06:06.917Z,53.30
2018-07-14T15:08:35.393Z,53.80
2018-07-14T15:11:03.889Z,54.50
2018-07-14T15:13:32.469Z,53.60
2018-07-14T15:16:01.020Z,54.30
2018-07-14T15:18:29.509Z,53.60
2018-07-14T15:20:58.027Z,53.30
2018-07-14T15:23:26.477Z,53.60
2018-07-14T15:25:55.036Z,53.90
2018-07-14T15:28:23.452Z,54.80
2018-07-14T15:30:51.928Z,54.40
2018-07-14T15:33:20.509Z,54.30
2018-07-14T15:35:49.202Z,53.70
2018-07-14T15:38:17.657Z,53.10
2018-07-14T15:40:46.264Z,53.10
2018-07-14T15:43:14.814Z,52.50
2018-07-14T15:45:43.294Z,52.20
2018-07-14T15:48:11.776Z,53.10
2018-07-14T15:50:40.264Z,53.30
2018-07-14T15:53:08.709Z,53.40
2018-07-14T15:55:37.898Z,54.10
2018-07-14T15:58:06.515Z,52.70
2018-07-14T16:00:34.972Z,53.40
2018-07-14T16:03:03.417Z,52.90
2018-07-14T16:05:31.897Z,53.10
2018-07-14T16:08:00.373Z,52.40
2018-07-14T16:10:28.841Z,53.20
2018-07-14T16:12:57.693Z,52.70
2018-07-14T16:15:26.750Z,53.70
2018-07-14T16:17:55.180Z,53.80
2018-07-14T16:20:23.686Z,54.30
2018-07-14T16:22:52.108Z,54.00
2018-07-14T16:25:20.548Z,54.10
2018-07-14T16:27:48.999Z,53.90
2018-07-14T16:30:17.421Z,54.50
2018-07-14T16:32:45.980Z,54.40
2018-07-14T16:35:14.438Z,54.20
2018-07-14T16:37:42.961Z,54.60
2018-07-14T16:40:11.482Z,54.90
2018-07-14T16:42:39.952Z,54.50
2018-07-14T16:45:08.558Z,54.70
2018-07-14T16:47:36.977Z,54.60
2018-07-14T16:50:05.457Z,54.80
2018-07-14T16:52:33.925Z,54.60
2018-07-14T16:55:02.400Z,55.90
2018-07-14T16:57:30.920Z,58.10
2018-07-14T17:00:00.097Z,60.10
2018-07-14T17:02:31.461Z,57.30
2018-07-14T17:04:59.996Z,57.50
2018-07-14T17:07:28.530Z,59.30
2018-07-14T17:09:56.968Z,57.50
2018-07-14T17:12:25.511Z,56.80
2018-07-14T17:14:54.093Z,58.00
2018-07-14T17:17:22.822Z,57.00
2018-07-14T17:19:51.272Z,56.00
2018-07-14T17:22:19.696Z,56.10
2018-07-14T17:24:48.133Z,57.90
2018-07-14T17:27:16.580Z,56.90
2018-07-14T17:29:45.022Z,56.60
2018-07-14T17:32:13.459Z,56.60
2018-07-14T17:34:41.954Z,56.00
2018-07-14T17:37:10.406Z,56.30
2018-07-14T17:39:39.486Z,54.80
2018-07-14T17:42:07.940Z,55.00
2018-07-14T17:44:36.481Z,55.90
2018-07-14T17:47:05.075Z,54.70
2018-07-14T17:49:33.557Z,55.00
2018-07-14T17:52:02.224Z,54.90
2018-07-14T17:54:30.553Z,54.20
2018-07-14T17:56:59.010Z,55.00
2018-07-14T17:59:27.607Z,55.60
2018-07-14T18:01:56.081Z,55.10
2018-07-14T18:04:24.749Z,54.70
2018-07-14T18:06:53.231Z,55.40
2018-07-14T18:09:21.664Z,55.30
2018-07-14T18:11:50.185Z,56.20
2018-07-14T18:14:18.696Z,55.80
2018-07-14T18:16:47.163Z,56.20
2018-07-14T18:19:15.731Z,56.50
2018-07-14T18:21:44.200Z,56.90
2018-07-14T18:24:12.659Z,56.00
2018-07-14T18:26:41.173Z,56.90
2018-07-14T18:29:09.652Z,56.90
2018-07-14T18:31:38.374Z,57.00
2018-07-14T18:34:06.921Z,56.90
2018-07-14T18:36:35.472Z,56.80
2018-07-14T18:39:05.255Z,57.00
2018-07-14T18:41:33.750Z,57.30
2018-07-14T18:44:02.307Z,56.60
2018-07-14T18:46:30.918Z,56.30
2018-07-14T18:48:59.465Z,56.50
2018-07-14T18:51:28.011Z,56.90
2018-07-14T18:53:57.117Z,57.20
2018-07-14T18:56:25.590Z,57.90
2018-07-14T18:58:54.485Z,57.90
2018-07-14T19:01:23.255Z,58.50
2018-07-14T19:03:51.753Z,59.00
2018-07-14T19:06:20.234Z,59.00
2018-07-14T19:08:48.701Z,58.90
2018-07-14T19:11:17.234Z,59.30
2018-07-14T19:13:45.724Z,60.30
2018-07-14T19:16:14.340Z,60.10
2018-07-14T19:18:42.808Z,59.90
2018-07-14T19:21:11.399Z,61.10
2018-07-14T19:23:39.830Z,60.90
2018-07-14T19:26:08.408Z,62.10
2018-07-14T19:28:37.032Z,61.90
2018-07-14T19:31:05.542Z,61.50
2018-07-14T19:33:33.980Z,62.10
2018-07-14T19:36:02.404Z,61.50
2018-07-14T19:38:30.944Z,62.20
2018-07-14T19:40:59.417Z,62.60
2018-07-14T19:43:27.992Z,62.80
2018-07-14T19:45:56.432Z,62.40
2018-07-14T19:48:24.950Z,63.30
2018-07-14T19:50:53.401Z,63.00
2018-07-14T19:53:21.826Z,63.40
2018-07-14T19:55:50.276Z,63.60
2018-07-14T19:58:18.852Z,63.30
2018-07-14T20:00:47.344Z,64.30
2018-07-14T20:03:15.878Z,64.00
2018-07-14T20:05:44.477Z,64.10
2018-07-14T20:08:12.941Z,64.00
2018-07-14T20:10:41.400Z,64.10
2018-07-14T20:13:09.874Z,63.70
2018-07-14T20:15:38.335Z,64.20
2018-07-14T20:18:07.485Z,64.10
2018-07-14T20:20:35.884Z,64.90
2018-07-14T20:23:04.428Z,65.10
2018-07-14T20:25:33.253Z,65.30
2018-07-14T20:28:01.746Z,65.20
2018-07-14T20:30:30.347Z,64.30
2018-07-14T20:32:58.768Z,64.60
2018-07-14T20:35:27.425Z,65.20
2018-07-14T20:37:55.925Z,64.10
2018-07-14T20:40:24.489Z,64.80
2018-07-14T20:42:52.951Z,65.30
2018-07-14T20:45:21.453Z,65.00
2018-07-14T20:47:50.110Z,66.00
2018-07-14T20:50:18.584Z,65.70
2018-07-14T20:52:47.073Z,65.50
2018-07-14T20:55:15.525Z,66.60
2018-07-14T20:57:44.679Z,66.30
2018-07-14T21:00:13.205Z,67.20
2018-07-14T21:02:41.653Z,66.30
2018-07-14T21:05:10.652Z,67.00
2018-07-14T21:07:39.222Z,67.10
2018-07-14T21:10:07.727Z,67.30
2018-07-14T21:12:36.254Z,67.40
2018-07-14T21:15:04.678Z,67.90
2018-07-14T21:17:33.193Z,68.20
2018-07-14T21:20:01.705Z,67.90
2018-07-14T21:22:30.177Z,68.30
2018-07-14T21:24:58.613Z,68.20
2018-07-14T21:27:27.117Z,68.70
2018-07-14T21:29:55.573Z,68.50
2018-07-14T21:32:24.011Z,68.90
2018-07-14T21:34:52.590Z,68.40
2018-07-14T21:37:21.052Z,69.20
2018-07-14T21:39:49.542Z,68.90
2018-07-14T21:42:17.976Z,68.90
2018-07-14T21:44:51.486Z,69.60
2018-07-14T21:47:19.945Z,70.00
2018-07-14T21:49:48.500Z,70.30
2018-07-14T21:52:16.970Z,70.60
2018-07-14T21:54:45.433Z,71.10
2018-07-14T21:57:13.934Z,71.10
2018-07-14T21:59:42.433Z,72.00
2018-07-14T22:02:11.034Z,71.60
2018-07-14T22:04:39.489Z,72.00
2018-07-14T22:07:08.010Z,71.90
2018-07-14T22:09:36.462Z,72.30
2018-07-14T22:12:05.073Z,72.80
2018-07-14T22:14:33.460Z,72.60
2018-07-14T22:17:01.984Z,72.50
2018-07-14T22:19:30.495Z,72.40
2018-07-14T22:21:59.678Z,72.70
2018-07-14T22:24:28.181Z,72.70
2018-07-14T22:26:56.741Z,72.20
2018-07-14T22:29:25.223Z,73.00
2018-07-14T22:31:54.205Z,73.50
2018-07-14T22:34:22.750Z,73.50
2018-07-14T22:36:51.210Z,73.50
2018-07-14T22:39:19.711Z,74.00
2018-07-14T22:41:49.277Z,74.40
2018-07-14T22:44:18.737Z,74.80
2018-07-14T22:46:47.209Z,75.40
2018-07-14T22:49:15.712Z,76.30
2018-07-14T22:51:44.135Z,76.50
2018-07-14T22:54:12.739Z,76.50
2018-07-14T22:56:41.192Z,76.90
2018-07-14T22:59:09.643Z,77.10
2018-07-14T23:01:38.206Z,77.20
2018-07-14T23:04:07.404Z,77.60
2018-07-14T23:06:36.439Z,77.90
2018-07-14T23:09:06.890Z,78.50
2018-07-14T23:11:36.194Z,79.20
2018-07-14T23:14:04.685Z,79.50
2018-07-14T23:16:33.185Z,79.60
2018-07-14T23:19:01.721Z,79.90
2018-07-14T23:21:30.214Z,79.50
2018-07-14T23:23:58.649Z,79.30
2018-07-14T23:26:27.124Z,79.30
2018-07-14T23:28:55.557Z,79.90
2018-07-14T23:31:24.147Z,80.50
2018-07-14T23:33:52.573Z,81.00
2018-07-14T23:36:21.749Z,81.60
2018-07-14T23:38:50.169Z,82.10
2018-07-14T23:41:18.704Z,83.10
2018-07-14T23:43:47.203Z,82.90
2018-07-14T23:46:15.626Z,83.10
2018-07-14T23:48:44.952Z,83.10
2018-07-14T23:51:13.361Z,82.80
2018-07-14T23:53:41.821Z,82.10
2018-07-14T23:56:10.300Z,81.90
2018-07-14T23:58:38.712Z,81.30
